Time;durP1;ratioP1;P1;durP2;ratioP2;P2;SDS_P1;SDS_P2;PMS_P1;PMS_P2;Temp;Humidity;BMP_temperature;BMP_pressure;BME280_temperature;BME280_humidity;BME280_pressure;Samples;Min_cycle;Max_cycle;Signal;HPM_P1;HPM_P2
2022/10/18 00:02:08;;;;;;;20.45;13.60;;;;;;;;;;6161366;23;20084;-77
2022/10/18 00:04:34;;;;;;;17.30;12.90;;;;;;;;;;6186233;23;20039;-77
2022/10/18 00:07:00;;;;;;;20.88;13.00;;;;;;;;;;6214069;23;20012;-77
2022/10/18 00:09:26;;;;;;;24.33;13.18;;;;;;;;;;6221206;23;20051;-77
2022/10/18 00:11:53;;;;;;;24.95;14.77;;;;;;;;;;6228760;23;20022;-76
2022/10/18 00:14:19;;;;;;;21.30;14.55;;;;;;;;;;6222258;23;20342;-76
2022/10/18 00:16:45;;;;;;;22.58;14.90;;;;;;;;;;6220681;23;20016;-76
2022/10/18 00:19:11;;;;;;;26.45;15.63;;;;;;;;;;6213202;23;20070;-77
2022/10/18 00:21:37;;;;;;;21.52;14.90;;;;;;;;;;6211629;23;20306;-77
2022/10/18 00:24:03;;;;;;;20.08;14.52;;;;;;;;;;6212089;23;20093;-77
2022/10/18 00:26:29;;;;;;;24.13;15.00;;;;;;;;;;6211696;23;20008;-76
2022/10/18 00:28:55;;;;;;;23.10;14.30;;;;;;;;;;6211630;23;20016;-75
2022/10/18 00:31:22;;;;;;;18.30;14.10;;;;;;;;;;6211769;23;20099;-73
2022/10/18 00:33:50;;;;;;;22.58;14.95;;;;;;;;;;6185195;23;20520;-75
2022/10/18 00:36:16;;;;;;;17.40;13.38;;;;;;;;;;6211412;23;20020;-76
2022/10/18 00:38:42;;;;;;;23.35;15.50;;;;;;;;;;6185001;23;20019;-75
2022/10/18 00:41:09;;;;;;;21.98;14.38;;;;;;;;;;6211619;23;20016;-77
2022/10/18 00:43:51;;;;;;;17.48;13.30;;;;;;;;;;6185660;23;20013;-74
2022/10/18 00:46:17;;;;;;;17.90;13.20;;;;;;;;;;6184811;23;20019;-76
2022/10/18 00:48:43;;;;;;;20.50;13.07;;;;;;;;;;6211761;23;20048;-77
2022/10/18 00:51:09;;;;;;;25.67;13.02;;;;;;;;;;6211727;23;20035;-77
2022/10/18 00:53:35;;;;;;;20.80;13.55;;;;;;;;;;6211647;23;20031;-77
2022/10/18 00:56:01;;;;;;;18.02;13.13;;;;;;;;;;6185887;23;20388;-77
2022/10/18 00:58:27;;;;;;;15.85;12.30;;;;;;;;;;6194837;23;20019;-77
2022/10/18 01:00:53;;;;;;;21.00;13.32;;;;;;;;;;6185317;23;20099;-75
2022/10/18 01:03:19;;;;;;;16.13;12.85;;;;;;;;;;6211765;23;20381;-77
2022/10/18 01:05:45;;;;;;;14.23;11.95;;;;;;;;;;6211553;23;20020;-78
2022/10/18 01:08:23;;;;;;;15.85;13.52;;;;;;;;;;6160569;23;20009;-78
2022/10/18 01:11:07;;;;;;;16.17;11.68;;;;;;;;;;6211598;23;20400;-78
2022/10/18 01:13:39;;;;;;;12.98;10.93;;;;;;;;;;6211590;23;20013;-77
2022/10/18 01:16:09;;;;;;;18.15;11.25;;;;;;;;;;6185134;23;20480;-79
2022/10/18 01:18:47;;;;;;;15.05;12.93;;;;;;;;;;6211486;23;20013;-76
2022/10/18 01:21:31;;;;;;;12.15;10.00;;;;;;;;;;6180152;23;20024;-78
2022/10/18 01:24:13;;;;;;;12.48;11.27;;;;;;;;;;6208360;23;20016;-78
2022/10/18 01:26:38;;;;;;;;;;;;;;;;;;6211884;23;20095;-76
2022/10/18 01:29:04;;;;;;;14.10;10.95;;;;;;;;;;6211387;23;19931;-78
2022/10/18 01:31:32;;;;;;;13.73;11.20;;;;;;;;;;6211323;23;20009;-77
2022/10/18 01:34:01;;;;;;;20.02;12.07;;;;;;;;;;6210981;23;20012;-77
2022/10/18 01:36:29;;;;;;;12.90;11.18;;;;;;;;;;6184736;23;20329;-79
2022/10/18 01:38:56;;;;;;;13.88;11.02;;;;;;;;;;6184688;23;20015;-80
2022/10/18 01:41:22;;;;;;;21.98;13.00;;;;;;;;;;6184975;23;20071;-79
2022/10/18 01:43:49;;;;;;;16.95;12.27;;;;;;;;;;6184607;23;20059;-78
2022/10/18 01:46:16;;;;;;;16.98;11.25;;;;;;;;;;6184990;23;20070;-79
2022/10/18 01:48:43;;;;;;;15.13;12.77;;;;;;;;;;6159747;23;20032;-78
2022/10/18 01:51:09;;;;;;;17.02;13.68;;;;;;;;;;6184590;23;20009;-78
2022/10/18 01:53:35;;;;;;;19.88;12.30;;;;;;;;;;6211132;23;20012;-78
2022/10/18 01:56:11;;;;;;;15.85;12.13;;;;;;;;;;6184311;23;20376;-78
2022/10/18 01:58:41;;;;;;;19.13;12.95;;;;;;;;;;6184338;23;20012;-78
2022/10/18 02:01:09;;;;;;;16.75;11.23;;;;;;;;;;6184563;23;20013;-77
2022/10/18 02:03:36;;;;;;;14.73;9.57;;;;;;;;;;6134588;23;20039;-76
2022/10/18 02:06:07;;;;;;;10.93;9.15;;;;;;;;;;6184590;23;20401;-76
2022/10/18 02:08:33;;;;;;;17.85;12.75;;;;;;;;;;6184527;23;20051;-78
2022/10/18 02:11:03;;;;;;;17.52;12.02;;;;;;;;;;6210672;23;20063;-78
2022/10/18 02:13:29;;;;;;;13.80;12.23;;;;;;;;;;6211058;23;20146;-78
2022/10/18 02:16:16;;;;;;;16.27;10.25;;;;;;;;;;6168041;23;20376;-77
2022/10/18 02:18:56;;;;;;;12.73;10.38;;;;;;;;;;6184676;23;20009;-78
2022/10/18 02:21:22;;;;;;;20.00;12.00;;;;;;;;;;6184835;23;20480;-79
2022/10/18 02:23:48;;;;;;;16.95;12.70;;;;;;;;;;6183766;23;20012;-78
2022/10/18 02:26:14;;;;;;;17.83;11.98;;;;;;;;;;6211165;23;20012;-79
2022/10/18 02:28:40;;;;;;;15.70;11.52;;;;;;;;;;6159718;23;20066;-78
2022/10/18 02:31:09;;;;;;;15.98;12.13;;;;;;;;;;6184379;23;20012;-77
2022/10/18 02:33:42;;;;;;;15.35;12.63;;;;;;;;;;6159523;23;20015;-77
2022/10/18 02:36:15;;;;;;;19.35;13.77;;;;;;;;;;6184131;23;20027;-77
2022/10/18 02:38:42;;;;;;;16.98;12.15;;;;;;;;;;6210782;23;20016;-77
2022/10/18 02:41:08;;;;;;;19.35;11.18;;;;;;;;;;6210337;23;20017;-77
2022/10/18 02:43:34;;;;;;;15.70;11.25;;;;;;;;;;6184250;23;20092;-77
2022/10/18 02:46:00;;;;;;;15.65;11.93;;;;;;;;;;6210480;23;20023;-78
2022/10/18 02:48:26;;;;;;;16.58;12.68;;;;;;;;;;6184506;23;20028;-77
2022/10/18 02:50:51;;;;;;;17.25;11.05;;;;;;;;;;6185709;23;20013;-78
2022/10/18 02:53:17;;;;;;;13.40;11.85;;;;;;;;;;6195445;23;20012;-77
2022/10/18 02:55:43;;;;;;;16.98;12.52;;;;;;;;;;6212859;23;20032;-79
2022/10/18 02:58:09;;;;;;;14.35;12.82;;;;;;;;;;6210452;23;20346;-78
2022/10/18 03:00:35;;;;;;;14.82;12.77;;;;;;;;;;6210725;23;20020;-78
2022/10/18 03:03:01;;;;;;;14.15;12.25;;;;;;;;;;6159269;23;20044;-78
2022/10/18 03:05:27;;;;;;;15.57;12.88;;;;;;;;;;6211135;23;20036;-80
2022/10/18 03:07:55;;;;;;;22.05;12.75;;;;;;;;;;6210618;23;20059;-78
2022/10/18 03:10:21;;;;;;;9.63;8.75;;;;;;;;;;6211498;23;20013;-81
2022/10/18 03:12:47;;;;;;;14.70;12.30;;;;;;;;;;6211592;23;20013;-80
2022/10/18 03:15:13;;;;;;;17.67;12.60;;;;;;;;;;6162419;23;20035;-80
2022/10/18 03:17:39;;;;;;;13.75;12.23;;;;;;;;;;6214500;23;20008;-81
2022/10/18 03:20:05;;;;;;;15.10;11.93;;;;;;;;;;6186583;23;20079;-80
2022/10/18 03:22:31;;;;;;;16.52;11.80;;;;;;;;;;6213640;23;20013;-80
2022/10/18 03:24:57;;;;;;;18.15;12.95;;;;;;;;;;6186584;23;20063;-80
2022/10/18 03:27:23;;;;;;;9.80;8.43;;;;;;;;;;6186355;23;20017;-80
2022/10/18 03:29:49;;;;;;;17.85;13.90;;;;;;;;;;6212686;23;20016;-79
2022/10/18 03:32:14;;;;;;;16.40;12.55;;;;;;;;;;6213388;23;20016;-79
2022/10/18 03:34:40;;;;;;;14.43;12.35;;;;;;;;;;6220732;23;20464;-80
2022/10/18 03:37:06;;;;;;;18.00;12.35;;;;;;;;;;6221838;23;20017;-82
2022/10/18 03:39:32;;;;;;;20.10;14.13;;;;;;;;;;6216227;23;20055;-82
2022/10/18 03:41:58;;;;;;;21.95;12.90;;;;;;;;;;6219090;23;20013;-81
2022/10/18 03:44:24;;;;;;;15.98;12.13;;;;;;;;;;6193827;23;20546;-82
2022/10/18 03:46:50;;;;;;;22.30;14.77;;;;;;;;;;6221751;23;20400;-82
2022/10/18 03:49:16;;;;;;;15.20;11.02;;;;;;;;;;6223355;23;20016;-83
2022/10/18 03:51:42;;;;;;;23.83;13.68;;;;;;;;;;6195947;23;20013;-81
2022/10/18 03:54:08;;;;;;;15.70;12.30;;;;;;;;;;6188260;23;20102;-81
2022/10/18 03:56:33;;;;;;;19.23;14.05;;;;;;;;;;6215212;23;20338;-81
2022/10/18 03:58:59;;;;;;;9.57;8.70;;;;;;;;;;6165235;23;20476;-82
2022/10/18 04:01:25;;;;;;;14.23;12.77;;;;;;;;;;6216610;23;20017;-81
2022/10/18 04:03:51;;;;;;;17.50;15.45;;;;;;;;;;6187874;23;20032;-81
2022/10/18 04:06:17;;;;;;;21.02;14.10;;;;;;;;;;6218372;23;20016;-82
2022/10/18 04:08:42;;;;;;;17.92;13.10;;;;;;;;;;6227902;23;20021;-81
2022/10/18 04:11:09;;;;;;;19.90;14.25;;;;;;;;;;6229542;23;20008;-80
2022/10/18 04:13:35;;;;;;;18.33;13.65;;;;;;;;;;6204973;23;20063;-82
2022/10/18 04:16:01;;;;;;;21.08;14.60;;;;;;;;;;6230500;23;20047;-83
2022/10/18 04:18:27;;;;;;;15.65;12.02;;;;;;;;;;6231573;23;20059;-80
2022/10/18 04:20:53;;;;;;;23.02;13.70;;;;;;;;;;6224930;23;20024;-81
2022/10/18 04:23:19;;;;;;;20.00;14.38;;;;;;;;;;6236989;23;20025;-80
2022/10/18 04:25:45;;;;;;;22.48;15.32;;;;;;;;;;6240755;23;20011;-81
2022/10/18 04:28:11;;;;;;;20.85;13.80;;;;;;;;;;6209459;23;20531;-79
2022/10/18 04:30:37;;;;;;;19.52;14.65;;;;;;;;;;6234078;23;20060;-81
2022/10/18 04:33:03;;;;;;;25.42;19.27;;;;;;;;;;6233156;23;20019;-80
2022/10/18 04:35:29;;;;;;;19.92;14.73;;;;;;;;;;6234161;23;20021;-81
2022/10/18 04:37:55;;;;;;;27.90;17.02;;;;;;;;;;6209176;23;20017;-79
2022/10/18 04:40:20;;;;;;;21.38;15.18;;;;;;;;;;6182740;23;20016;-80
2022/10/18 04:42:46;;;;;;;26.35;19.08;;;;;;;;;;6233872;23;20028;-81
2022/10/18 04:45:12;;;;;;;23.13;17.98;;;;;;;;;;6228663;23;20020;-80
2022/10/18 04:47:38;;;;;;;20.17;16.27;;;;;;;;;;6203236;23;20028;-81
2022/10/18 04:50:04;;;;;;;18.67;14.52;;;;;;;;;;6237838;23;20008;-83
2022/10/18 04:52:30;;;;;;;18.52;14.07;;;;;;;;;;6182841;23;20032;-79
2022/10/18 04:54:56;;;;;;;24.55;15.68;;;;;;;;;;6235197;23;20562;-79
2022/10/18 04:57:22;;;;;;;16.15;12.75;;;;;;;;;;6232026;23;20020;-78
2022/10/18 04:59:48;;;;;;;19.35;14.48;;;;;;;;;;6200356;23;20020;-77
2022/10/18 05:02:13;;;;;;;22.35;16.02;;;;;;;;;;6197073;23;20013;-76
2022/10/18 05:04:39;;;;;;;19.27;13.57;;;;;;;;;;6221364;23;20036;-79
2022/10/18 05:07:05;;;;;;;21.90;14.63;;;;;;;;;;6234290;23;20012;-80
2022/10/18 05:09:31;;;;;;;16.77;12.73;;;;;;;;;;6232964;23;20043;-81
2022/10/18 05:11:57;;;;;;;25.30;16.05;;;;;;;;;;6232072;23;20012;-78
2022/10/18 05:14:23;;;;;;;18.45;13.98;;;;;;;;;;6233255;23;20518;-79
2022/10/18 05:16:49;;;;;;;27.00;15.43;;;;;;;;;;6178149;23;20013;-79
2022/10/18 05:19:15;;;;;;;15.13;11.82;;;;;;;;;;6170843;23;20023;-80
2022/10/18 05:21:41;;;;;;;20.40;14.73;;;;;;;;;;6207779;23;20043;-79
2022/10/18 05:24:09;;;;;;;13.52;10.65;;;;;;;;;;6232232;23;20012;-80
2022/10/18 05:26:34;;;;;;;20.10;14.15;;;;;;;;;;6207393;23;19996;-80
2022/10/18 05:29:01;;;;;;;11.60;8.63;;;;;;;;;;6206366;23;20465;-80
2022/10/18 05:31:27;;;;;;;20.30;13.57;;;;;;;;;;6207413;23;20019;-80
2022/10/18 05:33:53;;;;;;;17.88;13.30;;;;;;;;;;6233935;23;20020;-80
2022/10/18 05:36:19;;;;;;;18.92;13.25;;;;;;;;;;6198922;23;20024;-75
2022/10/18 05:38:46;;;;;;;23.25;13.68;;;;;;;;;;6213812;23;20012;-74
2022/10/18 05:41:12;;;;;;;25.83;15.88;;;;;;;;;;6213102;23;20013;-74
2022/10/18 05:43:39;;;;;;;20.55;13.98;;;;;;;;;;6213712;23;20009;-75
2022/10/18 05:46:06;;;;;;;22.63;14.75;;;;;;;;;;6213337;23;20019;-72
2022/10/18 05:48:32;;;;;;;15.27;12.35;;;;;;;;;;6187273;23;20066;-76
2022/10/18 05:50:58;;;;;;;23.65;14.13;;;;;;;;;;6211874;23;20089;-75
2022/10/18 05:53:24;;;;;;;17.88;13.20;;;;;;;;;;6187750;23;20062;-75
2022/10/18 05:55:50;;;;;;;16.92;12.63;;;;;;;;;;6213893;23;20020;-73
2022/10/18 05:58:16;;;;;;;27.42;12.73;;;;;;;;;;6211970;23;20070;-74
2022/10/18 06:00:42;;;;;;;17.58;12.82;;;;;;;;;;6213918;23;20045;-75
2022/10/18 06:03:08;;;;;;;19.05;11.73;;;;;;;;;;6212795;23;20093;-75
2022/10/18 06:05:34;;;;;;;20.13;14.98;;;;;;;;;;6211595;23;20017;-76
2022/10/18 06:08:00;;;;;;;29.52;15.85;;;;;;;;;;6210472;23;20036;-73
2022/10/18 06:10:26;;;;;;;18.80;13.82;;;;;;;;;;6211116;23;20069;-76
2022/10/18 06:12:52;;;;;;;17.52;13.93;;;;;;;;;;6210671;23;20012;-75
2022/10/18 06:15:18;;;;;;;16.15;11.15;;;;;;;;;;6158626;23;20155;-75
2022/10/18 06:17:43;;;;;;;18.38;13.80;;;;;;;;;;6209829;23;20060;-75
2022/10/18 06:20:10;;;;;;;22.95;14.07;;;;;;;;;;6183302;23;20099;-75
2022/10/18 06:22:35;;;;;;;17.23;10.77;;;;;;;;;;6183161;23;20009;-74
2022/10/18 06:25:01;;;;;;;18.17;10.93;;;;;;;;;;6209762;23;20012;-76
2022/10/18 06:27:27;;;;;;;22.92;13.70;;;;;;;;;;6183982;23;20012;-76
2022/10/18 06:29:53;;;;;;;15.93;12.25;;;;;;;;;;6184629;23;20017;-75
2022/10/18 06:32:19;;;;;;;22.77;14.73;;;;;;;;;;6209986;23;20540;-77
2022/10/18 06:34:45;;;;;;;17.45;12.55;;;;;;;;;;6210257;23;20020;-78
2022/10/18 06:37:11;;;;;;;21.13;14.40;;;;;;;;;;6183362;23;20066;-78
2022/10/18 06:39:37;;;;;;;20.33;14.25;;;;;;;;;;6183256;23;20012;-76
2022/10/18 06:42:03;;;;;;;15.57;13.57;;;;;;;;;;6213966;23;20028;-76
2022/10/18 06:44:32;;;;;;;15.75;13.05;;;;;;;;;;6189341;23;20013;-79
2022/10/18 06:46:59;;;;;;;20.25;14.07;;;;;;;;;;6182805;23;20086;-77
2022/10/18 06:49:24;;;;;;;23.88;12.27;;;;;;;;;;6209920;23;20088;-76
2022/10/18 06:51:52;;;;;;;20.13;12.57;;;;;;;;;;6210045;23;20091;-79
2022/10/18 06:54:18;;;;;;;20.50;14.90;;;;;;;;;;6183658;23;20018;-79
2022/10/18 06:56:44;;;;;;;25.42;16.58;;;;;;;;;;6183642;23;20116;-79
2022/10/18 06:59:10;;;;;;;24.20;16.23;;;;;;;;;;6209889;23;20040;-79
2022/10/18 07:01:36;;;;;;;23.65;15.88;;;;;;;;;;6210512;23;20472;-78
2022/10/18 07:04:03;;;;;;;27.95;18.05;;;;;;;;;;6182701;23;20013;-80
2022/10/18 07:06:29;;;;;;;19.83;12.10;;;;;;;;;;6184612;23;20016;-79
2022/10/18 07:08:55;;;;;;;26.02;17.10;;;;;;;;;;6211105;23;20017;-80
2022/10/18 07:11:23;;;;;;;28.42;14.10;;;;;;;;;;6159797;23;20012;-79
2022/10/18 07:13:50;;;;;;;21.67;14.55;;;;;;;;;;6214024;23;20012;-82
2022/10/18 07:16:16;;;;;;;21.98;16.00;;;;;;;;;;6214085;23;20028;-82
2022/10/18 07:18:43;;;;;;;24.02;16.40;;;;;;;;;;6186620;23;20008;-81
2022/10/18 07:21:12;;;;;;;24.17;15.25;;;;;;;;;;6185034;23;20040;-79
2022/10/18 07:23:42;;;;;;;26.50;15.85;;;;;;;;;;6183795;23;20075;-79
2022/10/18 07:26:24;;;;;;;24.55;14.75;;;;;;;;;;6184485;23;20252;-78
2022/10/18 07:28:53;;;;;;;23.70;15.77;;;;;;;;;;6183680;23;20020;-77
2022/10/18 07:31:18;;;;;;;25.27;15.32;;;;;;;;;;6209823;23;20039;-79
2022/10/18 07:33:44;;;;;;;21.60;14.43;;;;;;;;;;6134133;23;20452;-78
2022/10/18 07:36:10;;;;;;;16.52;14.02;;;;;;;;;;6158562;23;20031;-78
2022/10/18 07:38:36;;;;;;;27.90;15.10;;;;;;;;;;6183548;23;20013;-78
2022/10/18 07:41:02;;;;;;;25.88;16.75;;;;;;;;;;6133919;23;20075;-78
2022/10/18 07:43:28;;;;;;;15.98;10.65;;;;;;;;;;6159363;23;20012;-77
2022/10/18 07:45:56;;;;;;;23.08;14.68;;;;;;;;;;6158748;23;20017;-80
2022/10/18 07:48:22;;;;;;;14.60;12.43;;;;;;;;;;6182757;23;20123;-78
2022/10/18 07:50:48;;;;;;;12.80;10.75;;;;;;;;;;6158561;23;20040;-78
2022/10/18 07:53:13;;;;;;;16.98;10.38;;;;;;;;;;6183157;23;20497;-80
2022/10/18 07:55:40;;;;;;;12.10;10.88;;;;;;;;;;6183899;23;20050;-79
2022/10/18 07:58:06;;;;;;;17.73;11.77;;;;;;;;;;6183208;23;20039;-77
2022/10/18 08:00:32;;;;;;;17.65;13.13;;;;;;;;;;6184544;23;20095;-75
2022/10/18 08:02:58;;;;;;;14.77;11.07;;;;;;;;;;6211419;23;20015;-77
2022/10/18 08:05:24;;;;;;;19.88;11.00;;;;;;;;;;6160527;23;20027;-80
2022/10/18 08:07:50;;;;;;;19.08;11.85;;;;;;;;;;6216860;23;20009;-83
2022/10/18 08:10:16;;;;;;;21.67;14.35;;;;;;;;;;6182215;23;20067;-85
2022/10/18 08:12:41;;;;;;;12.60;10.55;;;;;;;;;;6231847;23;20059;-82
2022/10/18 08:15:07;;;;;;;21.15;13.38;;;;;;;;;;6204805;23;20061;-84
2022/10/18 08:17:33;;;;;;;14.32;11.40;;;;;;;;;;6234404;23;19997;-84
2022/10/18 08:19:59;;;;;;;17.10;12.23;;;;;;;;;;6226424;23;20192;-84
2022/10/18 08:22:25;;;;;;;15.73;12.02;;;;;;;;;;6203389;23;20048;-83
2022/10/18 08:24:52;;;;;;;15.27;11.40;;;;;;;;;;6227367;23;20013;-82
2022/10/18 08:27:17;;;;;;;13.02;9.25;;;;;;;;;;6192672;23;20016;-81
2022/10/18 08:29:43;;;;;;;13.73;10.82;;;;;;;;;;6193255;23;20020;-79
2022/10/18 08:32:09;;;;;;;17.60;10.90;;;;;;;;;;6223025;23;20043;-75
2022/10/18 08:34:35;;;;;;;12.63;10.20;;;;;;;;;;6204748;23;20020;-80
2022/10/18 08:37:01;;;;;;;17.73;11.00;;;;;;;;;;6222184;23;20017;-78
2022/10/18 08:39:27;;;;;;;14.55;10.52;;;;;;;;;;6199258;23;20036;-77
2022/10/18 08:42:05;;;;;;;14.18;10.95;;;;;;;;;;6211279;23;20495;-80
2022/10/18 08:44:32;;;;;;;15.45;10.63;;;;;;;;;;6211504;23;20338;-81
2022/10/18 08:46:58;;;;;;;13.07;10.43;;;;;;;;;;6211680;23;20127;-80
2022/10/18 08:49:41;;;;;;;13.30;11.07;;;;;;;;;;6210325;23;20633;-79
2022/10/18 08:52:18;;;;;;;18.02;12.25;;;;;;;;;;6210896;23;20012;-79
2022/10/18 08:54:47;;;;;;;11.18;9.13;;;;;;;;;;6210829;23;20457;-79
2022/10/18 08:57:13;;;;;;;16.95;11.38;;;;;;;;;;6184458;23;20017;-80
2022/10/18 08:59:39;;;;;;;12.38;10.60;;;;;;;;;;6184415;23;20412;-78
2022/10/18 09:02:16;;;;;;;10.82;9.30;;;;;;;;;;6210461;23;20016;-80
2022/10/18 09:04:46;;;;;;;9.75;8.02;;;;;;;;;;6184150;23;20048;-79
2022/10/18 09:07:12;;;;;;;10.60;8.88;;;;;;;;;;6154666;23;20064;-79
2022/10/18 09:10:04;;;;;;;11.98;9.30;;;;;;;;;;6184857;23;20017;-83
2022/10/18 09:12:36;;;;;;;19.20;11.32;;;;;;;;;;6218853;23;20141;-76
2022/10/18 09:15:11;;;;;;;12.70;9.90;;;;;;;;;;6210446;23;20024;-73
2022/10/18 09:17:43;;;;;;;22.83;14.18;;;;;;;;;;6210736;23;20088;-74
2022/10/18 09:20:19;;;;;;;18.48;10.27;;;;;;;;;;6183879;23;20090;-72
2022/10/18 09:22:54;;;;;;;18.05;13.70;;;;;;;;;;6184477;23;20437;-74
2022/10/18 09:25:29;;;;;;;21.90;14.40;;;;;;;;;;6210339;23;20147;-72
2022/10/18 09:27:55;;;;;;;17.55;13.85;;;;;;;;;;6210376;23;20433;-74
2022/10/18 09:30:21;;;;;;;28.95;18.05;;;;;;;;;;6210610;23;20027;-72
2022/10/18 09:32:50;;;;;;;21.88;14.80;;;;;;;;;;6184336;23;20017;-72
2022/10/18 09:35:20;;;;;;;20.83;15.38;;;;;;;;;;6183359;23;20031;-72
2022/10/18 09:37:46;;;;;;;25.67;16.55;;;;;;;;;;6183667;23;20461;-72
2022/10/18 09:40:14;;;;;;;22.63;15.57;;;;;;;;;;6209565;23;20023;-73
2022/10/18 09:42:41;;;;;;;20.65;14.55;;;;;;;;;;6183114;23;20329;-73
2022/10/18 09:45:19;;;;;;;13.57;10.40;;;;;;;;;;6183242;23;20107;-73
2022/10/18 09:47:46;;;;;;;21.55;13.85;;;;;;;;;;6183447;23;20082;-73
2022/10/18 09:50:15;;;;;;;21.73;15.52;;;;;;;;;;6178306;23;20013;-73
2022/10/18 09:52:43;;;;;;;14.88;9.93;;;;;;;;;;6203449;23;20009;-73
2022/10/18 09:55:20;;;;;;;17.55;15.68;;;;;;;;;;6186836;23;20031;-81
2022/10/18 09:57:47;;;;;;;15.98;14.02;;;;;;;;;;6239333;23;20031;-83
2022/10/18 10:00:16;;;;;;;16.80;13.35;;;;;;;;;;6209411;23;20063;-84
2022/10/18 10:02:42;;;;;;;22.00;15.30;;;;;;;;;;6207831;23;20012;-84
2022/10/18 10:05:11;;;;;;;21.58;13.10;;;;;;;;;;6231632;23;20016;-83
2022/10/18 10:07:41;;;;;;;15.65;13.35;;;;;;;;;;6209421;23;20551;-82
2022/10/18 10:10:27;;;;;;;14.40;9.75;;;;;;;;;;6206273;23;20055;-84
2022/10/18 10:13:12;;;;;;;18.60;13.60;;;;;;;;;;6207016;23;20088;-85
2022/10/18 10:15:40;;;;;;;14.63;12.35;;;;;;;;;;6183875;23;20055;-82
2022/10/18 10:18:25;;;;;;;13.60;12.07;;;;;;;;;;6185255;23;20013;-74
2022/10/18 10:20:52;;;;;;;15.02;12.48;;;;;;;;;;6183681;23;20539;-73
2022/10/18 10:23:18;;;;;;;16.50;14.77;;;;;;;;;;6182657;23;20012;-73
2022/10/18 10:25:44;;;;;;;12.57;11.25;;;;;;;;;;6209915;23;20104;-72
2022/10/18 10:28:14;;;;;;;18.27;13.20;;;;;;;;;;6183021;23;20066;-72
2022/10/18 10:30:39;;;;;;;19.83;13.52;;;;;;;;;;6183419;23;20019;-72
2022/10/18 10:33:08;;;;;;;12.07;10.88;;;;;;;;;;6210370;23;20013;-73
2022/10/18 10:35:35;;;;;;;16.27;13.60;;;;;;;;;;6183366;23;20032;-74
2022/10/18 10:38:01;;;;;;;17.85;13.38;;;;;;;;;;6182989;23;20092;-73
2022/10/18 10:40:27;;;;;;;18.50;13.68;;;;;;;;;;6208945;23;20048;-74
2022/10/18 10:42:58;;;;;;;35.65;21.23;;;;;;;;;;6182697;23;20016;-74
2022/10/18 10:45:24;;;;;;;31.95;21.75;;;;;;;;;;6182945;23;20111;-74
2022/10/18 10:47:52;;;;;;;28.67;18.92;;;;;;;;;;6181774;23;20016;-73
2022/10/18 10:50:25;;;;;;;25.63;18.50;;;;;;;;;;6208190;23;20504;-74
2022/10/18 10:52:50;;;;;;;5.97;5.57;;;;;;;;;;6209988;23;20115;-73
2022/10/18 10:55:17;;;;;;;27.23;18.92;;;;;;;;;;6209123;23;20024;-73
2022/10/18 10:57:46;;;;;;;10.35;9.25;;;;;;;;;;6209725;23;20500;-73
2022/10/18 11:00:31;;;;;;;25.92;18.48;;;;;;;;;;6182362;23;20062;-72
2022/10/18 11:03:15;;;;;;;15.35;13.70;;;;;;;;;;6209590;23;20008;-72
2022/10/18 11:05:42;;;;;;;10.35;9.40;;;;;;;;;;6209212;23;20018;-72
2022/10/18 11:08:09;;;;;;;22.88;16.63;;;;;;;;;;6209048;23;20012;-74
2022/10/18 11:10:36;;;;;;;24.45;19.17;;;;;;;;;;6158251;23;20031;-72
2022/10/18 11:13:04;;;;;;;23.98;17.88;;;;;;;;;;6209407;23;20020;-72
2022/10/18 11:15:35;;;;;;;22.80;17.48;;;;;;;;;;6182571;23;20475;-72
2022/10/18 11:18:09;;;;;;;20.63;17.98;;;;;;;;;;6209591;23;20013;-73
2022/10/18 11:20:41;;;;;;;14.52;12.77;;;;;;;;;;6182660;23;20062;-73
2022/10/18 11:23:09;;;;;;;20.95;15.90;;;;;;;;;;6209580;23;20040;-72
2022/10/18 11:25:42;;;;;;;20.10;16.92;;;;;;;;;;6156939;23;20019;-72
2022/10/18 11:28:12;;;;;;;24.67;18.45;;;;;;;;;;6209403;23;20016;-73
2022/10/18 11:30:41;;;;;;;25.75;17.58;;;;;;;;;;6208511;23;20415;-71
2022/10/18 11:33:19;;;;;;;26.90;18.83;;;;;;;;;;6208859;23;20104;-72
2022/10/18 11:35:45;;;;;;;20.17;17.15;;;;;;;;;;6210782;23;20032;-72
2022/10/18 11:38:29;;;;;;;19.23;15.52;;;;;;;;;;6167483;23;20323;-72
2022/10/18 11:41:13;;;;;;;18.75;15.10;;;;;;;;;;6181306;23;20017;-72
2022/10/18 11:43:49;;;;;;;27.23;21.77;;;;;;;;;;6211207;23;20050;-73
2022/10/18 11:46:20;;;;;;;16.48;14.82;;;;;;;;;;6159917;23;20412;-73
2022/10/18 11:49:02;;;;;;;16.10;14.52;;;;;;;;;;6211287;23;20079;-73
2022/10/18 11:51:36;;;;;;;21.27;16.35;;;;;;;;;;6211110;23;20070;-74
2022/10/18 11:54:05;;;;;;;18.42;16.48;;;;;;;;;;6183810;23;20534;-73
2022/10/18 11:56:36;;;;;;;12.80;11.65;;;;;;;;;;6210434;23;20020;-75
2022/10/18 11:59:02;;;;;;;19.65;16.48;;;;;;;;;;6211088;23;20013;-75
2022/10/18 12:01:39;;;;;;;11.45;10.32;;;;;;;;;;6210788;23;20091;-75
2022/10/18 12:04:08;;;;;;;20.02;16.77;;;;;;;;;;6210517;23;20008;-72
2022/10/18 12:06:38;;;;;;;15.80;14.10;;;;;;;;;;6211364;23;20013;-74
2022/10/18 12:09:24;;;;;;;23.67;18.85;;;;;;;;;;6184258;23;20043;-73
2022/10/18 12:12:00;;;;;;;15.40;12.73;;;;;;;;;;6211032;23;20092;-73
2022/10/18 12:14:28;;;;;;;14.77;13.27;;;;;;;;;;6210674;23;20012;-74
2022/10/18 12:16:55;;;;;;;19.00;17.10;;;;;;;;;;6183948;23;20029;-75
2022/10/18 12:19:22;;;;;;;13.35;12.05;;;;;;;;;;6183795;23;20112;-74
2022/10/18 12:21:49;;;;;;;13.43;11.68;;;;;;;;;;6183117;23;20099;-74
2022/10/18 12:24:17;;;;;;;18.77;16.85;;;;;;;;;;6209949;23;20043;-74
2022/10/18 12:26:43;;;;;;;17.60;15.73;;;;;;;;;;6159381;23;20012;-75
2022/10/18 12:29:16;;;;;;;19.33;16.92;;;;;;;;;;6207021;23;20044;-76
2022/10/18 12:31:46;;;;;;;11.50;10.40;;;;;;;;;;6183753;23;20076;-74
2022/10/18 12:34:18;;;;;;;14.45;13.07;;;;;;;;;;6212228;23;20016;-74
2022/10/18 12:37:05;;;;;;;18.05;16.25;;;;;;;;;;6187463;23;20518;-75
2022/10/18 12:39:36;;;;;;;13.23;11.85;;;;;;;;;;6202803;23;20016;-75
2022/10/18 12:42:02;;;;;;;11.27;10.27;;;;;;;;;;6197148;23;20020;-75
2022/10/18 12:44:32;;;;;;;16.70;15.00;;;;;;;;;;6222371;23;20023;-75
2022/10/18 12:46:59;;;;;;;10.88;9.77;;;;;;;;;;6187249;23;20051;-72
2022/10/18 12:49:29;;;;;;;12.38;10.65;;;;;;;;;;6182731;23;20016;-73
2022/10/18 12:51:57;;;;;;;14.50;13.20;;;;;;;;;;6210627;23;20036;-73
2022/10/18 12:54:30;;;;;;;15.05;13.75;;;;;;;;;;6184304;23;20012;-74
2022/10/18 12:56:56;;;;;;;16.92;12.00;;;;;;;;;;6184196;23;20020;-75
2022/10/18 12:59:25;;;;;;;15.65;14.15;;;;;;;;;;6183636;23;20008;-74
2022/10/18 13:01:51;;;;;;;7.65;7.03;;;;;;;;;;6184000;23;20040;-74
2022/10/18 13:04:26;;;;;;;10.20;9.30;;;;;;;;;;6210077;23;20012;-73
2022/10/18 13:07:06;;;;;;;9.60;8.77;;;;;;;;;;6183924;23;20035;-74
2022/10/18 13:09:43;;;;;;;13.20;11.85;;;;;;;;;;6210209;23;20417;-73
2022/10/18 13:12:09;;;;;;;7.65;7.13;;;;;;;;;;6184178;23;20036;-74
2022/10/18 13:14:55;;;;;;;12.48;11.45;;;;;;;;;;6183527;23;20361;-73
2022/10/18 13:17:21;;;;;;;10.65;9.80;;;;;;;;;;6209611;23;20075;-74
2022/10/18 13:19:50;;;;;;;10.43;9.50;;;;;;;;;;6210093;23;20012;-74
2022/10/18 13:22:29;;;;;;;8.32;7.72;;;;;;;;;;6183770;23;20012;-73
2022/10/18 13:25:10;;;;;;;8.30;7.50;;;;;;;;;;6210440;23;20024;-73
2022/10/18 13:27:39;;;;;;;10.30;9.30;;;;;;;;;;6210244;23;20495;-72
2022/10/18 13:30:07;;;;;;;8.30;7.68;;;;;;;;;;6210167;23;20020;-72
2022/10/18 13:32:34;;;;;;;9.88;9.02;;;;;;;;;;6210521;23;20103;-72
2022/10/18 13:35:00;;;;;;;8.43;7.72;;;;;;;;;;6183928;23;20051;-75
2022/10/18 13:37:28;;;;;;;6.93;6.35;;;;;;;;;;6210471;23;20408;-73
2022/10/18 13:40:12;;;;;;;9.18;8.30;;;;;;;;;;6210136;23;20016;-76
2022/10/18 13:42:38;;;;;;;9.00;8.25;;;;;;;;;;6182775;23;20556;-74
2022/10/18 13:45:23;;;;;;;10.30;9.45;;;;;;;;;;6210432;23;20091;-73
2022/10/18 13:47:49;;;;;;;14.15;9.00;;;;;;;;;;6209954;23;20042;-73
2022/10/18 13:50:41;;;;;;;6.93;6.43;;;;;;;;;;6209556;23;20013;-74
2022/10/18 13:53:15;;;;;;;8.82;8.00;;;;;;;;;;6206016;23;20013;-74
2022/10/18 13:55:51;;;;;;;6.03;5.47;;;;;;;;;;6209865;23;20098;-73
2022/10/18 13:58:17;;;;;;;7.05;6.45;;;;;;;;;;6183159;23;20008;-73
2022/10/18 14:00:55;;;;;;;5.43;5.03;;;;;;;;;;6209995;23;20020;-73
2022/10/18 14:03:40;;;;;;;5.10;4.70;;;;;;;;;;6209813;23;20016;-74
2022/10/18 14:06:11;;;;;;;5.10;4.63;;;;;;;;;;6209947;23;20040;-73
2022/10/18 14:08:43;;;;;;;4.70;4.40;;;;;;;;;;6183539;23;20017;-73
2022/10/18 14:11:24;;;;;;;5.38;4.97;;;;;;;;;;6209765;23;20017;-72
2022/10/18 14:13:49;;;;;;;;;;;;;;;;;;6183925;23;20027;-71
2022/10/18 14:16:25;;;;;;;4.28;3.97;;;;;;;;;;6209648;23;19915;-72
2022/10/18 14:18:52;;;;;;;3.88;3.67;;;;;;;;;;6183585;23;20008;-72
2022/10/18 14:21:19;;;;;;;3.65;3.35;;;;;;;;;;6209373;23;20016;-75
2022/10/18 14:23:45;;;;;;;4.22;3.92;;;;;;;;;;6210240;23;20059;-72
2022/10/18 14:26:15;;;;;;;3.30;3.10;;;;;;;;;;6211019;23;20063;-71
2022/10/18 14:28:41;;;;;;;3.97;3.70;;;;;;;;;;6183279;23;20401;-72
2022/10/18 14:31:11;;;;;;;3.28;3.08;;;;;;;;;;6182902;23;20024;-71